sensor_id;sensor_type;location;lat;lon;timestamp;temperature;humidity
77519;DHT22;66629;47.346;19.038;2023-01-09T00:01:34;8.54;80.35
77519;DHT22;66629;47.346;19.038;2023-01-09T00:04:00;8.48;80.53
77519;DHT22;66629;47.346;19.038;2023-01-09T00:06:25;8.51;80.40
77519;DHT22;66629;47.346;19.038;2023-01-09T00:08:51;8.51;80.33
77519;DHT22;66629;47.346;19.038;2023-01-09T00:11:16;8.51;80.31
77519;DHT22;66629;47.346;19.038;2023-01-09T00:13:42;8.58;79.99
77519;DHT22;66629;47.346;19.038;2023-01-09T00:16:08;8.58;80.06
77519;DHT22;66629;47.346;19.038;2023-01-09T00:18:34;8.58;79.99
77519;DHT22;66629;47.346;19.038;2023-01-09T00:21:02;8.58;79.83
77519;DHT22;66629;47.346;19.038;2023-01-09T00:23:28;8.57;79.85
77519;DHT22;66629;47.346;19.038;2023-01-09T00:26:09;8.61;79.58
77519;DHT22;66629;47.346;19.038;2023-01-09T00:28:35;8.63;79.61
77519;DHT22;66629;47.346;19.038;2023-01-09T00:31:01;8.57;79.71
77519;DHT22;66629;47.346;19.038;2023-01-09T00:36:21;8.65;79.32
77519;DHT22;66629;47.346;19.038;2023-01-09T00:38:47;8.65;78.98
77519;DHT22;66629;47.346;19.038;2023-01-09T00:41:22;8.65;79.14
77519;DHT22;66629;47.346;19.038;2023-01-09T00:43:52;8.61;79.06
77519;DHT22;66629;47.346;19.038;2023-01-09T00:46:20;8.64;78.77
77519;DHT22;66629;47.346;19.038;2023-01-09T00:48:47;8.71;78.53
77519;DHT22;66629;47.346;19.038;2023-01-09T00:51:13;8.68;78.61
77519;DHT22;66629;47.346;19.038;2023-01-09T00:53:40;8.69;78.32
77519;DHT22;66629;47.346;19.038;2023-01-09T00:56:09;8.75;77.97
77519;DHT22;66629;47.346;19.038;2023-01-09T00:58:36;8.81;77.62
77519;DHT22;66629;47.346;19.038;2023-01-09T01:01:01;8.75;77.72
77519;DHT22;66629;47.346;19.038;2023-01-09T01:03:27;8.78;77.52
77519;DHT22;66629;47.346;19.038;2023-01-09T01:05:52;8.76;77.46
77519;DHT22;66629;47.346;19.038;2023-01-09T01:08:37;8.79;77.53
77519;DHT22;66629;47.346;19.038;2023-01-09T01:11:06;8.76;77.52
77519;DHT22;66629;47.346;19.038;2023-01-09T01:13:38;8.79;77.59
77519;DHT22;66629;47.346;19.038;2023-01-09T01:16:06;8.76;77.58
77519;DHT22;66629;47.346;19.038;2023-01-09T01:18:31;8.69;77.85
77519;DHT22;66629;47.346;19.038;2023-01-09T01:20:57;8.76;77.58
77519;DHT22;66629;47.346;19.038;2023-01-09T01:23:22;8.68;77.85
77519;DHT22;66629;47.346;19.038;2023-01-09T01:25:48;8.73;77.68
77519;DHT22;66629;47.346;19.038;2023-01-09T01:28:14;8.75;77.43
77519;DHT22;66629;47.346;19.038;2023-01-09T01:30:40;8.76;77.27
77519;DHT22;66629;47.346;19.038;2023-01-09T01:33:07;8.76;77.41
77519;DHT22;66629;47.346;19.038;2023-01-09T01:35:32;8.75;77.44
77519;DHT22;66629;47.346;19.038;2023-01-09T01:37:58;8.75;77.43
77519;DHT22;66629;47.346;19.038;2023-01-09T01:40:23;8.75;77.68
77519;DHT22;66629;47.346;19.038;2023-01-09T01:42:51;8.75;77.52
77519;DHT22;66629;47.346;19.038;2023-01-09T01:55:52;8.69;78.00
77519;DHT22;66629;47.346;19.038;2023-01-09T01:58:23;8.65;78.05
77519;DHT22;66629;47.346;19.038;2023-01-09T02:00:50;8.64;78.03
77519;DHT22;66629;47.346;19.038;2023-01-09T02:03:18;8.65;78.11
77519;DHT22;66629;47.346;19.038;2023-01-09T02:05:44;8.63;78.07
77519;DHT22;66629;47.346;19.038;2023-01-09T02:08:10;8.65;77.97
77519;DHT22;66629;47.346;19.038;2023-01-09T02:10:36;8.65;78.00
77519;DHT22;66629;47.346;19.038;2023-01-09T02:13:03;8.60;78.30
77519;DHT22;66629;47.346;19.038;2023-01-09T02:15:44;8.63;78.04
77519;DHT22;66629;47.346;19.038;2023-01-09T02:18:41;8.64;78.04
77519;DHT22;66629;47.346;19.038;2023-01-09T02:27:12;8.68;77.68
77519;DHT22;66629;47.346;19.038;2023-01-09T02:33:07;8.63;77.72
77519;DHT22;66629;47.346;19.038;2023-01-09T02:40:48;8.60;77.72
77519;DHT22;66629;47.346;19.038;2023-01-09T02:43:14;8.60;78.09
77519;DHT22;66629;47.346;19.038;2023-01-09T02:45:40;8.60;77.78
77519;DHT22;66629;47.346;19.038;2023-01-09T02:48:09;8.57;78.01
77519;DHT22;66629;47.346;19.038;2023-01-09T02:50:40;8.60;77.90
77519;DHT22;66629;47.346;19.038;2023-01-09T02:56:30;8.55;78.17
77519;DHT22;66629;47.346;19.038;2023-01-09T03:07:02;8.55;77.96
77519;DHT22;66629;47.346;19.038;2023-01-09T03:09:33;8.55;77.97
77519;DHT22;66629;47.346;19.038;2023-01-09T03:12:08;8.54;78.03
77519;DHT22;66629;47.346;19.038;2023-01-09T03:14:37;8.51;78.11
77519;DHT22;66629;47.346;19.038;2023-01-09T03:17:06;8.53;78.17
77519;DHT22;66629;47.346;19.038;2023-01-09T03:19:34;8.55;77.75
77519;DHT22;66629;47.346;19.038;2023-01-09T03:22:00;8.51;77.99
77519;DHT22;66629;47.346;19.038;2023-01-09T03:24:26;8.53;77.68
77519;DHT22;66629;47.346;19.038;2023-01-09T03:26:51;8.51;77.79
77519;DHT22;66629;47.346;19.038;2023-01-09T03:29:18;8.51;77.88
77519;DHT22;66629;47.346;19.038;2023-01-09T03:31:44;8.51;77.79
77519;DHT22;66629;47.346;19.038;2023-01-09T03:34:09;8.50;77.94
77519;DHT22;66629;47.346;19.038;2023-01-09T03:36:34;8.50;78.03
77519;DHT22;66629;47.346;19.038;2023-01-09T03:39:00;8.51;77.87
77519;DHT22;66629;47.346;19.038;2023-01-09T03:41:25;8.43;78.04
77519;DHT22;66629;47.346;19.038;2023-01-09T03:43:51;8.43;78.03
77519;DHT22;66629;47.346;19.038;2023-01-09T03:46:16;8.46;78.02
77519;DHT22;66629;47.346;19.038;2023-01-09T03:48:42;8.43;78.13
77519;DHT22;66629;47.346;19.038;2023-01-09T03:51:08;8.43;78.42
77519;DHT22;66629;47.346;19.038;2023-01-09T03:53:33;8.46;78.47
77519;DHT22;66629;47.346;19.038;2023-01-09T03:55:59;8.46;78.05
77519;DHT22;66629;47.346;19.038;2023-01-09T03:58:25;8.41;78.56
77519;DHT22;66629;47.346;19.038;2023-01-09T04:00:51;8.40;78.31
77519;DHT22;66629;47.346;19.038;2023-01-09T04:03:21;8.41;78.39
77519;DHT22;66629;47.346;19.038;2023-01-09T04:05:47;8.38;78.47
77519;DHT22;66629;47.346;19.038;2023-01-09T04:08:14;8.41;78.65
77519;DHT22;66629;47.346;19.038;2023-01-09T04:10:46;8.44;78.59
77519;DHT22;66629;47.346;19.038;2023-01-09T04:13:12;8.47;78.11
77519;DHT22;66629;47.346;19.038;2023-01-09T04:15:37;8.48;78.20
77519;DHT22;66629;47.346;19.038;2023-01-09T04:18:03;8.43;78.50
77519;DHT22;66629;47.346;19.038;2023-01-09T04:20:29;8.41;78.41
77519;DHT22;66629;47.346;19.038;2023-01-09T04:22:55;8.40;78.84
77519;DHT22;66629;47.346;19.038;2023-01-09T04:25:20;8.41;78.48
77519;DHT22;66629;47.346;19.038;2023-01-09T04:27:47;8.41;78.74
77519;DHT22;66629;47.346;19.038;2023-01-09T04:30:13;8.41;78.59
77519;DHT22;66629;47.346;19.038;2023-01-09T04:32:38;8.40;78.65
77519;DHT22;66629;47.346;19.038;2023-01-09T04:35:04;8.36;78.74
77519;DHT22;66629;47.346;19.038;2023-01-09T04:37:30;8.38;78.32
77519;DHT22;66629;47.346;19.038;2023-01-09T04:39:55;8.38;78.31
77519;DHT22;66629;47.346;19.038;2023-01-09T04:42:21;8.34;78.77
77519;DHT22;66629;47.346;19.038;2023-01-09T04:44:46;8.33;78.74
77519;DHT22;66629;47.346;19.038;2023-01-09T04:47:12;8.33;78.72
77519;DHT22;66629;47.346;19.038;2023-01-09T04:49:38;8.33;78.67
77519;DHT22;66629;47.346;19.038;2023-01-09T04:52:04;8.29;79.00
77519;DHT22;66629;47.346;19.038;2023-01-09T04:54:29;8.30;78.78
77519;DHT22;66629;47.346;19.038;2023-01-09T04:56:55;8.34;78.34
77519;DHT22;66629;47.346;19.038;2023-01-09T04:59:20;8.33;78.49
77519;DHT22;66629;47.346;19.038;2023-01-09T05:01:46;8.36;78.30
77519;DHT22;66629;47.346;19.038;2023-01-09T05:04:11;8.33;78.28
77519;DHT22;66629;47.346;19.038;2023-01-09T05:06:38;8.30;78.37
77519;DHT22;66629;47.346;19.038;2023-01-09T05:09:03;8.34;78.37
77519;DHT22;66629;47.346;19.038;2023-01-09T05:11:29;8.36;78.21
77519;DHT22;66629;47.346;19.038;2023-01-09T05:13:54;8.33;78.14
77519;DHT22;66629;47.346;19.038;2023-01-09T05:16:20;8.34;78.32
77519;DHT22;66629;47.346;19.038;2023-01-09T05:18:46;8.32;78.08
77519;DHT22;66629;47.346;19.038;2023-01-09T05:21:12;8.33;78.03
77519;DHT22;66629;47.346;19.038;2023-01-09T05:23:37;8.37;77.73
77519;DHT22;66629;47.346;19.038;2023-01-09T05:26:03;8.38;77.57
77519;DHT22;66629;47.346;19.038;2023-01-09T05:28:29;8.34;78.01
77519;DHT22;66629;47.346;19.038;2023-01-09T05:30:55;8.36;77.80
77519;DHT22;66629;47.346;19.038;2023-01-09T05:33:20;8.36;77.93
77519;DHT22;66629;47.346;19.038;2023-01-09T05:35:46;8.34;78.09
77519;DHT22;66629;47.346;19.038;2023-01-09T05:38:11;8.32;78.44
77519;DHT22;66629;47.346;19.038;2023-01-09T05:40:37;8.28;78.41
77519;DHT22;66629;47.346;19.038;2023-01-09T05:43:02;8.26;78.33
77519;DHT22;66629;47.346;19.038;2023-01-09T05:45:28;8.20;78.66
77519;DHT22;66629;47.346;19.038;2023-01-09T05:47:53;8.19;78.87
77519;DHT22;66629;47.346;19.038;2023-01-09T05:50:18;8.14;79.06
77519;DHT22;66629;47.346;19.038;2023-01-09T05:52:44;8.09;79.20
77519;DHT22;66629;47.346;19.038;2023-01-09T05:55:11;8.05;79.28
77519;DHT22;66629;47.346;19.038;2023-01-09T05:57:36;8.02;79.35
77519;DHT22;66629;47.346;19.038;2023-01-09T06:00:03;7.99;79.66
77519;DHT22;66629;47.346;19.038;2023-01-09T06:02:29;7.98;79.39
77519;DHT22;66629;47.346;19.038;2023-01-09T06:04:54;7.96;79.49
77519;DHT22;66629;47.346;19.038;2023-01-09T06:07:19;7.94;79.83
77519;DHT22;66629;47.346;19.038;2023-01-09T06:09:45;7.94;79.75
77519;DHT22;66629;47.346;19.038;2023-01-09T06:12:10;7.94;79.36
77519;DHT22;66629;47.346;19.038;2023-01-09T06:14:35;7.95;79.13
77519;DHT22;66629;47.346;19.038;2023-01-09T06:17:01;7.96;79.06
77519;DHT22;66629;47.346;19.038;2023-01-09T06:19:26;7.96;78.80
77519;DHT22;66629;47.346;19.038;2023-01-09T06:21:52;7.96;78.20
77519;DHT22;66629;47.346;19.038;2023-01-09T06:24:18;7.99;78.52
77519;DHT22;66629;47.346;19.038;2023-01-09T06:26:43;7.98;78.39
77519;DHT22;66629;47.346;19.038;2023-01-09T06:29:09;7.99;78.09
77519;DHT22;66629;47.346;19.038;2023-01-09T06:31:34;8.01;78.04
77519;DHT22;66629;47.346;19.038;2023-01-09T06:33:59;8.02;77.43
77519;DHT22;66629;47.346;19.038;2023-01-09T06:36:25;8.02;77.01
77519;DHT22;66629;47.346;19.038;2023-01-09T06:38:50;7.96;77.19
77519;DHT22;66629;47.346;19.038;2023-01-09T06:41:16;7.96;77.58
77519;DHT22;66629;47.346;19.038;2023-01-09T06:43:41;7.92;77.70
77519;DHT22;66629;47.346;19.038;2023-01-09T06:46:07;7.87;77.53
77519;DHT22;66629;47.346;19.038;2023-01-09T06:48:33;7.85;78.04
77519;DHT22;66629;47.346;19.038;2023-01-09T06:50:58;7.82;78.05
77519;DHT22;66629;47.346;19.038;2023-01-09T06:53:24;7.81;78.27
77519;DHT22;66629;47.346;19.038;2023-01-09T06:55:49;7.74;78.61
77519;DHT22;66629;47.346;19.038;2023-01-09T06:58:15;7.71;78.49
77519;DHT22;66629;47.346;19.038;2023-01-09T07:00:41;7.69;79.09
77519;DHT22;66629;47.346;19.038;2023-01-09T07:03:06;7.64;79.17
77519;DHT22;66629;47.346;19.038;2023-01-09T07:05:37;7.64;79.73
77519;DHT22;66629;47.346;19.038;2023-01-09T07:08:04;7.61;79.68
77519;DHT22;66629;47.346;19.038;2023-01-09T07:10:29;7.59;80.00
77519;DHT22;66629;47.346;19.038;2023-01-09T07:12:54;7.56;80.53
77519;DHT22;66629;47.346;19.038;2023-01-09T07:15:20;7.52;81.02
77519;DHT22;66629;47.346;19.038;2023-01-09T07:17:45;7.50;80.93
77519;DHT22;66629;47.346;19.038;2023-01-09T07:20:11;7.50;81.10
77519;DHT22;66629;47.346;19.038;2023-01-09T07:22:36;7.47;80.67
77519;DHT22;66629;47.346;19.038;2023-01-09T07:25:02;7.47;80.72
77519;DHT22;66629;47.346;19.038;2023-01-09T07:27:27;7.46;80.74
77519;DHT22;66629;47.346;19.038;2023-01-09T07:29:53;7.46;80.45
77519;DHT22;66629;47.346;19.038;2023-01-09T07:32:18;7.46;80.71
77519;DHT22;66629;47.346;19.038;2023-01-09T07:34:44;7.40;80.78
77519;DHT22;66629;47.346;19.038;2023-01-09T07:37:09;7.40;81.49
77519;DHT22;66629;47.346;19.038;2023-01-09T07:39:35;7.42;81.30
77519;DHT22;66629;47.346;19.038;2023-01-09T07:42:00;7.42;81.68
77519;DHT22;66629;47.346;19.038;2023-01-09T07:44:26;7.39;81.81
77519;DHT22;66629;47.346;19.038;2023-01-09T07:46:51;7.40;82.00
77519;DHT22;66629;47.346;19.038;2023-01-09T07:49:16;7.40;82.50
77519;DHT22;66629;47.346;19.038;2023-01-09T07:51:42;7.43;81.85
77519;DHT22;66629;47.346;19.038;2023-01-09T07:54:09;7.40;82.36
77519;DHT22;66629;47.346;19.038;2023-01-09T07:56:35;7.32;82.84
77519;DHT22;66629;47.346;19.038;2023-01-09T07:59:00;7.32;82.93
77519;DHT22;66629;47.346;19.038;2023-01-09T08:01:26;7.23;83.17
77519;DHT22;66629;47.346;19.038;2023-01-09T08:03:51;7.22;82.79
77519;DHT22;66629;47.346;19.038;2023-01-09T08:06:17;7.14;82.42
77519;DHT22;66629;47.346;19.038;2023-01-09T08:08:42;7.18;82.84
77519;DHT22;66629;47.346;19.038;2023-01-09T08:11:07;7.08;82.53
77519;DHT22;66629;47.346;19.038;2023-01-09T08:13:33;7.01;83.68
77519;DHT22;66629;47.346;19.038;2023-01-09T08:15:59;6.95;83.92
77519;DHT22;66629;47.346;19.038;2023-01-09T08:18:24;6.95;84.50
77519;DHT22;66629;47.346;19.038;2023-01-09T08:20:50;6.87;84.39
77519;DHT22;66629;47.346;19.038;2023-01-09T08:23:15;6.79;84.83
77519;DHT22;66629;47.346;19.038;2023-01-09T08:25:41;6.77;85.45
77519;DHT22;66629;47.346;19.038;2023-01-09T08:28:06;6.67;85.22
77519;DHT22;66629;47.346;19.038;2023-01-09T08:30:33;6.63;85.70
77519;DHT22;66629;47.346;19.038;2023-01-09T08:32:59;6.67;86.31
77519;DHT22;66629;47.346;19.038;2023-01-09T08:35:24;6.65;86.51
77519;DHT22;66629;47.346;19.038;2023-01-09T08:37:49;6.65;87.02
77519;DHT22;66629;47.346;19.038;2023-01-09T08:40:15;6.57;86.53
77519;DHT22;66629;47.346;19.038;2023-01-09T08:42:41;6.59;86.90
77519;DHT22;66629;47.346;19.038;2023-01-09T08:45:26;6.57;87.58
77519;DHT22;66629;47.346;19.038;2023-01-09T08:48:10;6.54;87.93
77519;DHT22;66629;47.346;19.038;2023-01-09T08:50:35;6.57;87.42
77519;DHT22;66629;47.346;19.038;2023-01-09T08:53:00;6.59;86.74
77519;DHT22;66629;47.346;19.038;2023-01-09T08:55:26;6.53;87.66
77519;DHT22;66629;47.346;19.038;2023-01-09T08:57:52;6.57;87.49
77519;DHT22;66629;47.346;19.038;2023-01-09T09:00:20;6.57;87.52
77519;DHT22;66629;47.346;19.038;2023-01-09T09:02:53;6.54;88.28
77519;DHT22;66629;47.346;19.038;2023-01-09T09:05:20;6.46;88.15
77519;DHT22;66629;47.346;19.038;2023-01-09T09:07:52;6.45;88.26
77519;DHT22;66629;47.346;19.038;2023-01-09T09:10:25;6.48;87.68
77519;DHT22;66629;47.346;19.038;2023-01-09T09:12:53;6.43;88.13
77519;DHT22;66629;47.346;19.038;2023-01-09T09:15:19;6.48;87.12
77519;DHT22;66629;47.346;19.038;2023-01-09T09:17:56;6.43;87.15
77519;DHT22;66629;47.346;19.038;2023-01-09T09:20:26;6.41;88.10
77519;DHT22;66629;47.346;19.038;2023-01-09T09:22:52;6.35;87.82
77519;DHT22;66629;47.346;19.038;2023-01-09T09:25:18;6.27;88.25
77519;DHT22;66629;47.346;19.038;2023-01-09T09:27:44;6.31;88.31
77519;DHT22;66629;47.346;19.038;2023-01-09T09:30:11;6.36;88.57
77519;DHT22;66629;47.346;19.038;2023-01-09T09:32:37;6.45;89.28
77519;DHT22;66629;47.346;19.038;2023-01-09T09:35:04;6.42;87.89
77519;DHT22;66629;47.346;19.038;2023-01-09T09:37:29;6.45;88.39
77519;DHT22;66629;47.346;19.038;2023-01-09T09:39:55;6.38;88.16
77519;DHT22;66629;47.346;19.038;2023-01-09T09:45:58;6.35;88.55
77519;DHT22;66629;47.346;19.038;2023-01-09T09:48:47;6.35;89.31
77519;DHT22;66629;47.346;19.038;2023-01-09T09:54:17;6.34;90.04
77519;DHT22;66629;47.346;19.038;2023-01-09T09:56:49;6.38;90.15
77519;DHT22;66629;47.346;19.038;2023-01-09T09:59:19;6.41;90.01
77519;DHT22;66629;47.346;19.038;2023-01-09T10:01:51;6.49;89.84
77519;DHT22;66629;47.346;19.038;2023-01-09T10:04:20;6.49;90.12
77519;DHT22;66629;47.346;19.038;2023-01-09T10:07:14;6.62;90.61
77519;DHT22;66629;47.346;19.038;2023-01-09T10:09:48;6.57;90.19
77519;DHT22;66629;47.346;19.038;2023-01-09T10:12:35;6.50;90.09
77519;DHT22;66629;47.346;19.038;2023-01-09T10:15:35;6.42;90.91
77519;DHT22;66629;47.346;19.038;2023-01-09T10:18:20;6.43;90.49
77519;DHT22;66629;47.346;19.038;2023-01-09T10:39:41;6.39;91.12
77519;DHT22;66629;47.346;19.038;2023-01-09T10:42:58;6.43;91.18
77519;DHT22;66629;47.346;19.038;2023-01-09T10:47:40;6.41;90.88
77519;DHT22;66629;47.346;19.038;2023-01-09T10:50:34;6.54;91.38
77519;DHT22;66629;47.346;19.038;2023-01-09T10:53:06;6.56;91.67
77519;DHT22;66629;47.346;19.038;2023-01-09T10:55:43;6.50;90.99
77519;DHT22;66629;47.346;19.038;2023-01-09T10:58:17;6.48;90.60
77519;DHT22;66629;47.346;19.038;2023-01-09T11:00:43;6.53;91.08
77519;DHT22;66629;47.346;19.038;2023-01-09T11:03:13;6.53;90.69
77519;DHT22;66629;47.346;19.038;2023-01-09T11:05:39;6.53;90.51
77519;DHT22;66629;47.346;19.038;2023-01-09T11:10:51;6.57;90.58
77519;DHT22;66629;47.346;19.038;2023-01-09T11:13:23;6.53;90.55
77519;DHT22;66629;47.346;19.038;2023-01-09T11:16:15;6.50;90.76
77519;DHT22;66629;47.346;19.038;2023-01-09T11:18:52;6.48;91.09
77519;DHT22;66629;47.346;19.038;2023-01-09T11:21:35;6.48;91.61
77519;DHT22;66629;47.346;19.038;2023-01-09T11:26:43;6.52;92.16
77519;DHT22;66629;47.346;19.038;2023-01-09T11:29:13;6.56;91.88
77519;DHT22;66629;47.346;19.038;2023-01-09T11:31:40;6.39;92.05
77519;DHT22;66629;47.346;19.038;2023-01-09T11:34:16;6.45;92.57
77519;DHT22;66629;47.346;19.038;2023-01-09T11:36:43;6.52;92.36
77519;DHT22;66629;47.346;19.038;2023-01-09T11:39:22;6.52;92.40
77519;DHT22;66629;47.346;19.038;2023-01-09T11:41:54;6.45;92.88
77519;DHT22;66629;47.346;19.038;2023-01-09T11:44:20;6.42;92.69
77519;DHT22;66629;47.346;19.038;2023-01-09T11:46:46;6.42;93.08
77519;DHT22;66629;47.346;19.038;2023-01-09T11:51:38;6.52;93.01
77519;DHT22;66629;47.346;19.038;2023-01-09T11:54:26;6.45;92.86
77519;DHT22;66629;47.346;19.038;2023-01-09T11:56:53;6.42;93.26
77519;DHT22;66629;47.346;19.038;2023-01-09T11:59:26;6.49;93.37
77519;DHT22;66629;47.346;19.038;2023-01-09T12:05:05;6.54;92.78
77519;DHT22;66629;47.346;19.038;2023-01-09T12:25:08;6.70;92.62
77519;DHT22;66629;47.346;19.038;2023-01-09T12:30:29;6.77;92.94
77519;DHT22;66629;47.346;19.038;2023-01-09T12:36:31;6.66;92.65
77519;DHT22;66629;47.346;19.038;2023-01-09T12:38:39;6.69;93.60
77519;DHT22;66629;47.346;19.038;2023-01-09T12:46:20;6.72;93.91
77519;DHT22;66629;47.346;19.038;2023-01-09T12:49:03;6.84;93.25
77519;DHT22;66629;47.346;19.038;2023-01-09T12:55:11;6.75;93.68
77519;DHT22;66629;47.346;19.038;2023-01-09T12:57:42;6.86;93.57
77519;DHT22;66629;47.346;19.038;2023-01-09T13:02:54;6.95;92.86
77519;DHT22;66629;47.346;19.038;2023-01-09T13:05:30;6.97;93.03
77519;DHT22;66629;47.346;19.038;2023-01-09T13:10:51;7.00;92.63
77519;DHT22;66629;47.346;19.038;2023-01-09T13:16:03;6.97;93.71
77519;DHT22;66629;47.346;19.038;2023-01-09T13:18:36;6.94;94.46
77519;DHT22;66629;47.346;19.038;2023-01-09T13:21:05;6.95;94.09
77519;DHT22;66629;47.346;19.038;2023-01-09T13:26:06;6.94;94.46
77519;DHT22;66629;47.346;19.038;2023-01-09T13:28:39;6.88;94.36
77519;DHT22;66629;47.346;19.038;2023-01-09T13:33:37;6.93;94.25
77519;DHT22;66629;47.346;19.038;2023-01-09T13:36:04;6.97;94.36
77519;DHT22;66629;47.346;19.038;2023-01-09T13:38:32;7.00;94.41
77519;DHT22;66629;47.346;19.038;2023-01-09T13:41:14;7.01;94.28
77519;DHT22;66629;47.346;19.038;2023-01-09T13:44:01;7.07;94.04
77519;DHT22;66629;47.346;19.038;2023-01-09T13:46:37;6.98;94.09
77519;DHT22;66629;47.346;19.038;2023-01-09T13:49:03;7.07;94.16
77519;DHT22;66629;47.346;19.038;2023-01-09T13:54:08;7.04;94.77
77519;DHT22;66629;47.346;19.038;2023-01-09T13:59:37;7.04;94.38
77519;DHT22;66629;47.346;19.038;2023-01-09T14:02:07;7.02;93.95
77519;DHT22;66629;47.346;19.038;2023-01-09T14:04:48;7.07;94.13
77519;DHT22;66629;47.346;19.038;2023-01-09T14:07:18;7.12;93.93
77519;DHT22;66629;47.346;19.038;2023-01-09T14:10:00;7.11;94.26
77519;DHT22;66629;47.346;19.038;2023-01-09T14:12:27;7.15;94.34
77519;DHT22;66629;47.346;19.038;2023-01-09T14:14:56;7.18;94.43
77519;DHT22;66629;47.346;19.038;2023-01-09T14:17:33;7.22;94.19
77519;DHT22;66629;47.346;19.038;2023-01-09T14:20:03;7.26;94.58
77519;DHT22;66629;47.346;19.038;2023-01-09T14:22:34;7.25;94.57
77519;DHT22;66629;47.346;19.038;2023-01-09T14:25:17;7.25;94.64
77519;DHT22;66629;47.346;19.038;2023-01-09T14:33:02;7.12;94.26
77519;DHT22;66629;47.346;19.038;2023-01-09T14:40:55;7.15;94.73
77519;DHT22;66629;47.346;19.038;2023-01-09T14:43:30;7.11;94.64
77519;DHT22;66629;47.346;19.038;2023-01-09T14:46:03;7.08;95.02
77519;DHT22;66629;47.346;19.038;2023-01-09T14:48:32;7.14;95.03
77519;DHT22;66629;47.346;19.038;2023-01-09T14:50:59;7.07;95.17
77519;DHT22;66629;47.346;19.038;2023-01-09T14:55:54;7.11;94.91
77519;DHT22;66629;47.346;19.038;2023-01-09T14:58:23;7.14;95.07
77519;DHT22;66629;47.346;19.038;2023-01-09T15:01:01;7.16;95.03
77519;DHT22;66629;47.346;19.038;2023-01-09T15:03:32;7.11;95.23
77519;DHT22;66629;47.346;19.038;2023-01-09T15:05:59;7.02;95.49
77519;DHT22;66629;47.346;19.038;2023-01-09T15:08:25;6.98;95.86
77519;DHT22;66629;47.346;19.038;2023-01-09T15:10:53;7.00;95.73
77519;DHT22;66629;47.346;19.038;2023-01-09T15:13:27;7.00;95.71
77519;DHT22;66629;47.346;19.038;2023-01-09T15:15:53;6.98;95.56
77519;DHT22;66629;47.346;19.038;2023-01-09T15:18:24;6.97;95.69
77519;DHT22;66629;47.346;19.038;2023-01-09T15:20:56;7.00;95.82
77519;DHT22;66629;47.346;19.038;2023-01-09T15:23:24;7.02;95.55
77519;DHT22;66629;47.346;19.038;2023-01-09T15:25:50;6.98;96.13
77519;DHT22;66629;47.346;19.038;2023-01-09T15:28:39;6.91;96.31
77519;DHT22;66629;47.346;19.038;2023-01-09T15:31:13;6.91;96.45
77519;DHT22;66629;47.346;19.038;2023-01-09T15:33:41;6.87;96.77
77519;DHT22;66629;47.346;19.038;2023-01-09T15:36:13;6.87;96.94
77519;DHT22;66629;47.346;19.038;2023-01-09T15:38:40;6.84;96.99
77519;DHT22;66629;47.346;19.038;2023-01-09T15:41:08;6.87;96.95
77519;DHT22;66629;47.346;19.038;2023-01-09T15:43:39;6.84;96.93
77519;DHT22;66629;47.346;19.038;2023-01-09T15:46:05;6.80;97.33
77519;DHT22;66629;47.346;19.038;2023-01-09T15:48:34;6.81;97.42
77519;DHT22;66629;47.346;19.038;2023-01-09T15:53:31;6.83;97.26
77519;DHT22;66629;47.346;19.038;2023-01-09T15:58:33;6.80;97.15
77519;DHT22;66629;47.346;19.038;2023-01-09T16:01:24;6.80;97.14
77519;DHT22;66629;47.346;19.038;2023-01-09T16:03:51;6.81;97.38
77519;DHT22;66629;47.346;19.038;2023-01-09T16:06:27;6.83;97.33
77519;DHT22;66629;47.346;19.038;2023-01-09T16:08:54;6.86;97.14
77519;DHT22;66629;47.346;19.038;2023-01-09T16:11:27;6.84;97.08
77519;DHT22;66629;47.346;19.038;2023-01-09T16:13:56;6.86;97.21
77519;DHT22;66629;47.346;19.038;2023-01-09T16:16:28;6.88;97.16
77519;DHT22;66629;47.346;19.038;2023-01-09T16:18:56;6.88;97.06
77519;DHT22;66629;47.346;19.038;2023-01-09T16:23:55;6.88;96.96
77519;DHT22;66629;47.346;19.038;2023-01-09T16:26:23;6.93;96.76
77519;DHT22;66629;47.346;19.038;2023-01-09T16:28:50;6.93;96.87
77519;DHT22;66629;47.346;19.038;2023-01-09T16:31:19;6.93;96.99
77519;DHT22;66629;47.346;19.038;2023-01-09T16:33:46;6.95;96.94
77519;DHT22;66629;47.346;19.038;2023-01-09T16:36:14;6.97;96.93
77519;DHT22;66629;47.346;19.038;2023-01-09T16:38:41;6.97;97.03
77519;DHT22;66629;47.346;19.038;2023-01-09T16:41:13;6.97;96.95
77519;DHT22;66629;47.346;19.038;2023-01-09T16:43:58;6.97;96.96
77519;DHT22;66629;47.346;19.038;2023-01-09T16:46:23;7.05;96.44
77519;DHT22;66629;47.346;19.038;2023-01-09T16:48:48;7.07;96.33
77519;DHT22;66629;47.346;19.038;2023-01-09T16:51:19;7.08;96.54
77519;DHT22;66629;47.346;19.038;2023-01-09T16:53:46;7.14;96.34
77519;DHT22;66629;47.346;19.038;2023-01-09T16:56:28;7.11;96.35
77519;DHT22;66629;47.346;19.038;2023-01-09T16:58:54;7.09;96.46
77519;DHT22;66629;47.346;19.038;2023-01-09T17:01:21;7.14;96.38
77519;DHT22;66629;47.346;19.038;2023-01-09T17:03:47;7.15;96.49
77519;DHT22;66629;47.346;19.038;2023-01-09T17:06:17;7.15;96.45
77519;DHT22;66629;47.346;19.038;2023-01-09T17:08:43;7.15;96.34
77519;DHT22;66629;47.346;19.038;2023-01-09T17:11:20;7.15;96.41
77519;DHT22;66629;47.346;19.038;2023-01-09T17:13:46;7.07;96.89
77519;DHT22;66629;47.346;19.038;2023-01-09T17:16:13;6.98;97.05
77519;DHT22;66629;47.346;19.038;2023-01-09T17:18:39;6.98;97.27
77519;DHT22;66629;47.346;19.038;2023-01-09T17:21:05;7.07;96.99
77519;DHT22;66629;47.346;19.038;2023-01-09T17:23:31;7.08;96.66
77519;DHT22;66629;47.346;19.038;2023-01-09T17:25:58;7.02;96.98
77519;DHT22;66629;47.346;19.038;2023-01-09T17:28:45;7.04;96.98
77519;DHT22;66629;47.346;19.038;2023-01-09T17:31:11;7.04;96.85
77519;DHT22;66629;47.346;19.038;2023-01-09T17:33:38;7.04;96.93
77519;DHT22;66629;47.346;19.038;2023-01-09T17:36:21;7.05;96.74
77519;DHT22;66629;47.346;19.038;2023-01-09T17:38:47;7.08;96.72
77519;DHT22;66629;47.346;19.038;2023-01-09T17:41:23;7.01;96.78
77519;DHT22;66629;47.346;19.038;2023-01-09T17:43:48;7.08;96.73
77519;DHT22;66629;47.346;19.038;2023-01-09T17:46:28;6.91;97.21
77519;DHT22;66629;47.346;19.038;2023-01-09T17:48:54;6.86;97.54
77519;DHT22;66629;47.346;19.038;2023-01-09T17:51:20;6.88;97.77
77519;DHT22;66629;47.346;19.038;2023-01-09T17:53:46;6.90;97.42
77519;DHT22;66629;47.346;19.038;2023-01-09T17:56:19;6.95;97.25
77519;DHT22;66629;47.346;19.038;2023-01-09T17:58:46;6.93;97.26
77519;DHT22;66629;47.346;19.038;2023-01-09T18:01:13;6.94;97.17
77519;DHT22;66629;47.346;19.038;2023-01-09T18:03:40;6.91;97.14
77519;DHT22;66629;47.346;19.038;2023-01-09T18:06:10;6.91;97.00
77519;DHT22;66629;47.346;19.038;2023-01-09T18:08:37;6.93;97.08
77519;DHT22;66629;47.346;19.038;2023-01-09T18:11:04;6.95;96.92